createdAt,value
2023-05-25T00:02:05.218Z,13.08
2023-05-25T00:04:36.905Z,13.08
2023-05-25T00:07:05.299Z,13.05
2023-05-25T00:09:33.906Z,13.04
2023-05-25T00:12:02.768Z,13.03
2023-05-25T00:14:31.096Z,13.02
2023-05-25T00:17:03.995Z,13.00
2023-05-25T00:19:44.133Z,13.02
2023-05-25T00:22:12.797Z,13.03
2023-05-25T00:24:41.124Z,13.03
2023-05-25T00:27:09.752Z,13.02
2023-05-25T00:29:38.018Z,13.04
2023-05-25T00:32:07.031Z,13.07
2023-05-25T00:34:36.292Z,13.10
2023-05-25T00:37:04.744Z,13.08
2023-05-25T00:39:33.001Z,13.10
2023-05-25T00:42:03.469Z,13.11
2023-05-25T00:44:32.140Z,13.12
2023-05-25T00:47:03.056Z,13.11
2023-05-25T00:49:42.483Z,13.14
2023-05-25T00:52:13.023Z,13.12
2023-05-25T00:54:41.601Z,13.12
2023-05-25T00:57:11.310Z,13.17
2023-05-25T00:59:46.982Z,13.20
2023-05-25T01:02:17.478Z,13.23
2023-05-25T01:04:54.918Z,13.26
2023-05-25T01:07:27.768Z,13.29
2023-05-25T01:10:05.041Z,13.34
2023-05-25T01:12:39.360Z,13.40
2023-05-25T01:15:09.558Z,13.47
2023-05-25T01:17:38.249Z,13.49
2023-05-25T01:20:11.022Z,13.53
2023-05-25T01:23:07.715Z,13.58
2023-05-25T01:25:40.715Z,13.59
2023-05-25T01:28:17.489Z,13.66
2023-05-25T01:30:49.987Z,13.69
2023-05-25T01:33:23.724Z,13.75
2023-05-25T01:35:52.316Z,13.77
2023-05-25T01:38:21.934Z,13.79
2023-05-25T01:40:50.274Z,13.88
2023-05-25T01:43:18.538Z,13.89
2023-05-25T01:45:47.633Z,13.96
2023-05-25T01:48:26.400Z,13.98
2023-05-25T01:51:01.783Z,14.02
2023-05-25T01:53:36.836Z,14.05
2023-05-25T01:56:11.327Z,14.04
2023-05-25T01:58:45.627Z,14.03
2023-05-25T02:01:16.001Z,14.01
2023-05-25T02:03:45.110Z,13.99
2023-05-25T02:06:13.468Z,13.96
2023-05-25T02:08:41.766Z,13.97
2023-05-25T02:11:13.157Z,13.95
2023-05-25T02:13:41.647Z,13.97
2023-05-25T02:16:10.480Z,14.00
2023-05-25T02:18:38.877Z,14.00
2023-05-25T02:21:07.178Z,14.02
2023-05-25T02:23:35.703Z,14.05
2023-05-25T02:26:04.086Z,14.03
2023-05-25T02:28:32.597Z,14.05
2023-05-25T02:31:01.104Z,14.01
2023-05-25T02:33:29.471Z,14.04
2023-05-25T02:35:59.207Z,14.07
2023-05-25T02:38:28.466Z,14.03
2023-05-25T02:40:56.816Z,14.07
2023-05-25T02:43:26.072Z,14.02
2023-05-25T02:45:55.038Z,14.03
2023-05-25T02:48:29.528Z,14.10
2023-05-25T02:50:57.813Z,14.05
2023-05-25T02:53:26.170Z,14.06
2023-05-25T02:55:54.970Z,14.11
2023-05-25T02:58:26.163Z,14.22
2023-05-25T03:01:10.363Z,14.13
2023-05-25T03:03:41.414Z,14.16
2023-05-25T03:06:09.716Z,14.10
2023-05-25T03:08:38.006Z,14.12
2023-05-25T03:11:06.578Z,14.18
2023-05-25T03:13:37.825Z,14.19
2023-05-25T03:16:06.954Z,14.18
2023-05-25T03:18:36.152Z,14.19
2023-05-25T03:21:04.736Z,14.23
2023-05-25T03:23:33.139Z,14.23
2023-05-25T03:26:04.989Z,14.24
2023-05-25T03:28:34.259Z,14.27
2023-05-25T03:31:02.635Z,14.27
2023-05-25T03:33:30.928Z,14.29
2023-05-25T03:35:59.331Z,14.31
2023-05-25T03:38:28.311Z,14.33
2023-05-25T03:41:22.282Z,14.37
2023-05-25T03:43:51.076Z,14.37
2023-05-25T03:46:19.510Z,14.36
2023-05-25T03:48:47.989Z,14.38
2023-05-25T03:51:16.541Z,14.34
2023-05-25T03:53:44.870Z,14.37
2023-05-25T03:56:13.269Z,14.37
2023-05-25T03:58:41.604Z,14.33
2023-05-25T04:01:10.561Z,14.43
2023-05-25T04:03:39.117Z,14.45
2023-05-25T04:06:07.618Z,14.49
2023-05-25T04:08:35.884Z,14.53
2023-05-25T04:11:06.215Z,14.56
2023-05-25T04:13:36.351Z,14.60
2023-05-25T04:16:08.235Z,14.62
2023-05-25T04:18:37.939Z,14.66
2023-05-25T04:21:06.365Z,14.64
2023-05-25T04:23:34.756Z,14.66
2023-05-25T04:26:05.977Z,14.77
2023-05-25T04:28:34.329Z,14.80
2023-05-25T04:31:12.779Z,14.79
2023-05-25T04:34:04.498Z,14.81
2023-05-25T04:36:42.472Z,14.89
2023-05-25T04:39:16.036Z,14.89
2023-05-25T04:41:49.636Z,14.98
2023-05-25T04:44:20.060Z,14.97
2023-05-25T04:46:52.318Z,15.08
2023-05-25T04:49:27.182Z,15.12
2023-05-25T04:51:55.967Z,15.18
2023-05-25T04:54:24.399Z,15.22
2023-05-25T04:56:53.285Z,15.15
2023-05-25T04:59:30.124Z,15.27
2023-05-25T05:01:59.640Z,15.27
2023-05-25T05:04:28.222Z,15.32
2023-05-25T05:06:58.938Z,15.38
2023-05-25T05:09:29.553Z,15.44
2023-05-25T05:12:01.742Z,15.52
2023-05-25T05:14:31.406Z,15.49
2023-05-25T05:17:02.406Z,15.56
2023-05-25T05:19:33.100Z,15.67
2023-05-25T05:22:01.450Z,15.65
2023-05-25T05:24:29.770Z,15.61
2023-05-25T05:26:59.228Z,15.63
2023-05-25T05:29:38.542Z,15.77
2023-05-25T05:32:07.527Z,15.84
2023-05-25T05:34:36.295Z,15.65
2023-05-25T05:37:10.162Z,15.63
2023-05-25T05:39:38.556Z,15.94
2023-05-25T05:42:08.157Z,15.93
2023-05-25T05:44:36.996Z,15.60
2023-05-25T05:47:05.790Z,15.97
2023-05-25T05:49:34.507Z,15.79
2023-05-25T05:52:27.768Z,16.00
2023-05-25T05:54:58.535Z,16.07
2023-05-25T05:57:51.642Z,16.29
2023-05-25T06:00:21.524Z,16.28
2023-05-25T06:02:52.197Z,16.34
2023-05-25T06:05:23.353Z,16.47
2023-05-25T06:08:18.771Z,16.57
2023-05-25T06:10:47.322Z,16.67
2023-05-25T06:13:16.467Z,16.68
2023-05-25T06:15:45.187Z,16.75
2023-05-25T06:18:19.023Z,16.75
2023-05-25T06:20:48.347Z,16.82
2023-05-25T06:23:18.528Z,16.89
2023-05-25T06:25:47.204Z,16.98
2023-05-25T06:28:16.056Z,17.06
2023-05-25T06:30:44.433Z,17.15
2023-05-25T06:33:13.696Z,17.19
2023-05-25T06:35:42.642Z,17.16
2023-05-25T06:38:12.218Z,17.24
2023-05-25T06:40:40.543Z,17.21
2023-05-25T06:43:09.062Z,17.26
2023-05-25T06:45:55.963Z,17.38
2023-05-25T06:48:24.389Z,17.44
2023-05-25T06:50:54.003Z,17.55
2023-05-25T06:53:22.345Z,17.65
2023-05-25T06:55:50.811Z,17.50
2023-05-25T06:58:19.066Z,17.52
2023-05-25T07:00:47.361Z,17.52
2023-05-25T07:03:16.622Z,17.50
2023-05-25T07:05:49.972Z,17.64
2023-05-25T07:08:18.254Z,17.65
2023-05-25T07:10:49.211Z,17.63
2023-05-25T07:13:18.358Z,17.72
2023-05-25T07:15:47.269Z,17.79
2023-05-25T07:18:17.252Z,17.92
2023-05-25T07:20:45.851Z,17.96
2023-05-25T07:23:24.688Z,18.16
2023-05-25T07:25:52.957Z,18.40
2023-05-25T07:28:21.294Z,18.50
2023-05-25T07:30:49.653Z,18.69
2023-05-25T07:33:18.051Z,18.69
2023-05-25T07:36:12.557Z,18.92
2023-05-25T07:38:43.111Z,19.18
2023-05-25T07:41:37.699Z,19.14
2023-05-25T07:44:06.187Z,19.29
2023-05-25T07:46:34.530Z,19.20
2023-05-25T07:49:27.756Z,19.20
2023-05-25T07:51:56.169Z,19.26
2023-05-25T07:54:25.440Z,19.19
2023-05-25T07:56:59.932Z,19.13
2023-05-25T07:59:28.324Z,19.12
2023-05-25T08:01:56.601Z,19.25
2023-05-25T08:04:25.044Z,19.24
2023-05-25T08:06:53.367Z,19.31
2023-05-25T08:09:21.633Z,19.30
